sensor_id;sensor_type;location;lat;lon;timestamp;P1;durP1;ratioP1;P2;durP2;ratioP2
23001;SDS011;11667;51.706;4.856;2023-04-25T00:00:21;18.40;;;3.90;;
23001;SDS011;11667;51.706;4.856;2023-04-25T00:02:50;18.12;;;3.90;;
23001;SDS011;11667;51.706;4.856;2023-04-25T00:05:20;14.30;;;3.40;;
23001;SDS011;11667;51.706;4.856;2023-04-25T00:07:51;15.75;;;3.62;;
23001;SDS011;11667;51.706;4.856;2023-04-25T00:10:20;14.73;;;3.77;;
23001;SDS011;11667;51.706;4.856;2023-04-25T00:12:50;19.20;;;4.20;;
23001;SDS011;11667;51.706;4.856;2023-04-25T00:15:19;17.12;;;3.67;;
23001;SDS011;11667;51.706;4.856;2023-04-25T00:17:49;14.83;;;3.90;;
23001;SDS011;11667;51.706;4.856;2023-04-25T00:20:20;17.45;;;4.25;;
23001;SDS011;11667;51.706;4.856;2023-04-25T00:22:50;20.10;;;4.40;;
23001;SDS011;11667;51.706;4.856;2023-04-25T00:25:23;11.95;;;3.90;;
23001;SDS011;11667;51.706;4.856;2023-04-25T00:27:53;15.30;;;3.95;;
23001;SDS011;11667;51.706;4.856;2023-04-25T00:30:22;17.02;;;4.17;;
23001;SDS011;11667;51.706;4.856;2023-04-25T00:32:52;23.75;;;4.10;;
23001;SDS011;11667;51.706;4.856;2023-04-25T00:35:21;21.00;;;4.35;;
23001;SDS011;11667;51.706;4.856;2023-04-25T00:37:51;18.98;;;4.20;;
23001;SDS011;11667;51.706;4.856;2023-04-25T00:40:20;22.10;;;4.72;;
23001;SDS011;11667;51.706;4.856;2023-04-25T00:42:50;17.80;;;4.30;;
23001;SDS011;11667;51.706;4.856;2023-04-25T00:45:21;28.15;;;4.55;;
23001;SDS011;11667;51.706;4.856;2023-04-25T00:47:50;20.23;;;4.12;;
23001;SDS011;11667;51.706;4.856;2023-04-25T00:50:20;22.58;;;4.65;;
23001;SDS011;11667;51.706;4.856;2023-04-25T00:52:49;18.55;;;4.62;;
23001;SDS011;11667;51.706;4.856;2023-04-25T00:55:18;16.35;;;4.40;;
23001;SDS011;11667;51.706;4.856;2023-04-25T00:57:49;17.80;;;4.28;;
23001;SDS011;11667;51.706;4.856;2023-04-25T01:00:19;19.40;;;4.50;;
23001;SDS011;11667;51.706;4.856;2023-04-25T01:02:49;24.30;;;4.83;;
23001;SDS011;11667;51.706;4.856;2023-04-25T01:05:19;22.90;;;4.50;;
23001;SDS011;11667;51.706;4.856;2023-04-25T01:07:49;21.15;;;4.78;;
23001;SDS011;11667;51.706;4.856;2023-04-25T01:10:19;16.20;;;4.05;;
23001;SDS011;11667;51.706;4.856;2023-04-25T01:12:48;21.33;;;4.37;;
23001;SDS011;11667;51.706;4.856;2023-04-25T01:15:18;19.95;;;4.35;;
23001;SDS011;11667;51.706;4.856;2023-04-25T01:17:47;19.73;;;4.03;;
23001;SDS011;11667;51.706;4.856;2023-04-25T01:20:17;18.30;;;4.22;;
23001;SDS011;11667;51.706;4.856;2023-04-25T01:22:49;17.62;;;4.20;;
23001;SDS011;11667;51.706;4.856;2023-04-25T01:25:19;19.27;;;4.75;;
23001;SDS011;11667;51.706;4.856;2023-04-25T01:27:49;15.28;;;4.28;;
23001;SDS011;11667;51.706;4.856;2023-04-25T01:30:19;13.38;;;4.33;;
23001;SDS011;11667;51.706;4.856;2023-04-25T01:32:49;20.00;;;4.90;;
23001;SDS011;11667;51.706;4.856;2023-04-25T01:35:20;23.40;;;4.87;;
23001;SDS011;11667;51.706;4.856;2023-04-25T01:40:22;21.37;;;4.50;;
23001;SDS011;11667;51.706;4.856;2023-04-25T01:42:53;19.27;;;5.10;;
23001;SDS011;11667;51.706;4.856;2023-04-25T01:45:23;22.05;;;4.80;;
23001;SDS011;11667;51.706;4.856;2023-04-25T01:47:53;25.55;;;4.78;;
23001;SDS011;11667;51.706;4.856;2023-04-25T01:50:22;22.10;;;4.55;;
23001;SDS011;11667;51.706;4.856;2023-04-25T01:52:52;22.55;;;5.35;;
23001;SDS011;11667;51.706;4.856;2023-04-25T01:55:22;21.05;;;4.40;;
23001;SDS011;11667;51.706;4.856;2023-04-25T01:58:02;21.73;;;4.58;;
23001;SDS011;11667;51.706;4.856;2023-04-25T02:00:52;25.82;;;5.25;;
23001;SDS011;11667;51.706;4.856;2023-04-25T02:03:23;30.55;;;5.10;;
23001;SDS011;11667;51.706;4.856;2023-04-25T02:05:54;18.27;;;4.60;;
23001;SDS011;11667;51.706;4.856;2023-04-25T02:08:24;14.73;;;5.10;;
23001;SDS011;11667;51.706;4.856;2023-04-25T02:10:55;15.25;;;4.87;;
23001;SDS011;11667;51.706;4.856;2023-04-25T02:13:26;17.45;;;4.80;;
23001;SDS011;11667;51.706;4.856;2023-04-25T02:15:59;21.50;;;4.67;;
23001;SDS011;11667;51.706;4.856;2023-04-25T02:18:30;22.07;;;4.83;;
23001;SDS011;11667;51.706;4.856;2023-04-25T02:20:59;22.98;;;4.70;;
23001;SDS011;11667;51.706;4.856;2023-04-25T02:23:29;17.98;;;4.83;;
23001;SDS011;11667;51.706;4.856;2023-04-25T02:25:59;22.75;;;4.67;;
23001;SDS011;11667;51.706;4.856;2023-04-25T02:28:29;14.80;;;4.53;;
23001;SDS011;11667;51.706;4.856;2023-04-25T02:30:58;18.45;;;4.60;;
23001;SDS011;11667;51.706;4.856;2023-04-25T02:33:30;16.80;;;3.90;;
23001;SDS011;11667;51.706;4.856;2023-04-25T02:35:59;20.48;;;4.87;;
23001;SDS011;11667;51.706;4.856;2023-04-25T02:38:28;21.40;;;4.53;;
23001;SDS011;11667;51.706;4.856;2023-04-25T02:40:58;15.50;;;4.50;;
23001;SDS011;11667;51.706;4.856;2023-04-25T02:43:28;18.57;;;4.80;;
23001;SDS011;11667;51.706;4.856;2023-04-25T02:45:57;14.65;;;4.30;;
23001;SDS011;11667;51.706;4.856;2023-04-25T02:48:26;20.80;;;4.47;;
23001;SDS011;11667;51.706;4.856;2023-04-25T02:50:56;18.00;;;4.20;;
23001;SDS011;11667;51.706;4.856;2023-04-25T02:53:26;14.35;;;4.25;;
23001;SDS011;11667;51.706;4.856;2023-04-25T02:55:55;16.85;;;4.30;;
23001;SDS011;11667;51.706;4.856;2023-04-25T02:58:27;18.77;;;4.03;;
23001;SDS011;11667;51.706;4.856;2023-04-25T03:00:56;16.82;;;4.15;;
23001;SDS011;11667;51.706;4.856;2023-04-25T03:03:25;20.00;;;4.53;;
23001;SDS011;11667;51.706;4.856;2023-04-25T03:05:55;17.95;;;5.03;;
23001;SDS011;11667;51.706;4.856;2023-04-25T03:08:26;12.25;;;4.15;;
23001;SDS011;11667;51.706;4.856;2023-04-25T03:10:58;22.77;;;4.22;;
23001;SDS011;11667;51.706;4.856;2023-04-25T03:13:28;14.55;;;3.95;;
23001;SDS011;11667;51.706;4.856;2023-04-25T03:15:58;15.25;;;3.95;;
23001;SDS011;11667;51.706;4.856;2023-04-25T03:18:29;17.48;;;4.25;;
23001;SDS011;11667;51.706;4.856;2023-04-25T03:20:59;13.18;;;4.00;;
23001;SDS011;11667;51.706;4.856;2023-04-25T03:23:29;12.82;;;4.00;;
23001;SDS011;11667;51.706;4.856;2023-04-25T03:25:59;17.05;;;3.90;;
23001;SDS011;11667;51.706;4.856;2023-04-25T03:28:28;15.20;;;3.75;;
23001;SDS011;11667;51.706;4.856;2023-04-25T03:30:58;10.45;;;3.25;;
23001;SDS011;11667;51.706;4.856;2023-04-25T03:33:28;19.23;;;3.55;;
23001;SDS011;11667;51.706;4.856;2023-04-25T03:35:57;12.85;;;3.50;;
23001;SDS011;11667;51.706;4.856;2023-04-25T03:38:27;16.17;;;4.05;;
23001;SDS011;11667;51.706;4.856;2023-04-25T03:40:57;17.65;;;3.55;;
23001;SDS011;11667;51.706;4.856;2023-04-25T03:43:28;16.12;;;3.33;;
23001;SDS011;11667;51.706;4.856;2023-04-25T03:46:00;11.28;;;3.45;;
23001;SDS011;11667;51.706;4.856;2023-04-25T03:48:29;13.58;;;3.85;;
23001;SDS011;11667;51.706;4.856;2023-04-25T03:50:59;11.80;;;2.85;;
23001;SDS011;11667;51.706;4.856;2023-04-25T03:53:29;9.88;;;2.98;;
23001;SDS011;11667;51.706;4.856;2023-04-25T03:56:17;12.45;;;3.10;;
23001;SDS011;11667;51.706;4.856;2023-04-25T03:58:48;15.18;;;2.70;;
23001;SDS011;11667;51.706;4.856;2023-04-25T04:01:18;7.62;;;2.60;;
23001;SDS011;11667;51.706;4.856;2023-04-25T04:03:47;14.25;;;2.50;;
23001;SDS011;11667;51.706;4.856;2023-04-25T04:06:18;10.63;;;3.25;;
23001;SDS011;11667;51.706;4.856;2023-04-25T04:08:50;14.75;;;2.65;;
23001;SDS011;11667;51.706;4.856;2023-04-25T04:11:21;9.45;;;2.80;;
23001;SDS011;11667;51.706;4.856;2023-04-25T04:13:50;8.85;;;2.85;;
23001;SDS011;11667;51.706;4.856;2023-04-25T04:16:20;8.08;;;2.50;;
23001;SDS011;11667;51.706;4.856;2023-04-25T04:18:50;6.08;;;2.05;;
23001;SDS011;11667;51.706;4.856;2023-04-25T04:21:20;8.40;;;2.20;;
23001;SDS011;11667;51.706;4.856;2023-04-25T04:23:50;4.62;;;1.92;;
23001;SDS011;11667;51.706;4.856;2023-04-25T04:26:20;8.95;;;2.12;;
23001;SDS011;11667;51.706;4.856;2023-04-25T04:28:55;7.20;;;2.40;;
23001;SDS011;11667;51.706;4.856;2023-04-25T04:31:39;7.85;;;2.05;;
23001;SDS011;11667;51.706;4.856;2023-04-25T04:34:10;7.05;;;2.27;;
23001;SDS011;11667;51.706;4.856;2023-04-25T04:36:40;10.32;;;2.35;;
23001;SDS011;11667;51.706;4.856;2023-04-25T04:39:10;9.60;;;2.33;;
23001;SDS011;11667;51.706;4.856;2023-04-25T04:41:41;9.98;;;2.47;;
23001;SDS011;11667;51.706;4.856;2023-04-25T04:44:15;11.75;;;2.52;;
23001;SDS011;11667;51.706;4.856;2023-04-25T04:46:49;9.13;;;2.45;;
23001;SDS011;11667;51.706;4.856;2023-04-25T04:49:27;10.35;;;2.10;;
23001;SDS011;11667;51.706;4.856;2023-04-25T04:51:58;11.20;;;2.55;;
23001;SDS011;11667;51.706;4.856;2023-04-25T04:54:29;10.15;;;2.47;;
23001;SDS011;11667;51.706;4.856;2023-04-25T04:57:09;10.65;;;2.40;;
23001;SDS011;11667;51.706;4.856;2023-04-25T04:59:41;9.53;;;2.40;;
23001;SDS011;11667;51.706;4.856;2023-04-25T05:02:27;11.12;;;2.75;;
23001;SDS011;11667;51.706;4.856;2023-04-25T05:05:05;11.00;;;2.42;;
23001;SDS011;11667;51.706;4.856;2023-04-25T05:07:53;10.38;;;2.37;;
23001;SDS011;11667;51.706;4.856;2023-04-25T05:10:37;8.70;;;2.25;;
23001;SDS011;11667;51.706;4.856;2023-04-25T05:13:08;10.90;;;2.40;;
23001;SDS011;11667;51.706;4.856;2023-04-25T05:15:45;8.48;;;2.35;;
23001;SDS011;11667;51.706;4.856;2023-04-25T05:18:19;13.90;;;2.52;;
23001;SDS011;11667;51.706;4.856;2023-04-25T05:20:58;5.95;;;2.10;;
23001;SDS011;11667;51.706;4.856;2023-04-25T05:23:44;11.28;;;2.60;;
23001;SDS011;11667;51.706;4.856;2023-04-25T05:26:24;9.60;;;2.60;;
23001;SDS011;11667;51.706;4.856;2023-04-25T05:29:00;8.33;;;2.42;;
23001;SDS011;11667;51.706;4.856;2023-04-25T05:31:40;8.90;;;2.40;;
23001;SDS011;11667;51.706;4.856;2023-04-25T05:34:12;8.53;;;2.65;;
23001;SDS011;11667;51.706;4.856;2023-04-25T05:36:43;12.85;;;2.65;;
23001;SDS011;11667;51.706;4.856;2023-04-25T05:39:14;13.32;;;2.37;;
23001;SDS011;11667;51.706;4.856;2023-04-25T05:41:53;9.63;;;2.60;;
23001;SDS011;11667;51.706;4.856;2023-04-25T05:44:43;11.90;;;2.37;;
23001;SDS011;11667;51.706;4.856;2023-04-25T05:47:29;13.45;;;2.33;;
23001;SDS011;11667;51.706;4.856;2023-04-25T05:50:00;9.68;;;2.30;;
23001;SDS011;11667;51.706;4.856;2023-04-25T05:52:31;11.80;;;2.37;;
23001;SDS011;11667;51.706;4.856;2023-04-25T05:55:03;7.83;;;2.17;;
23001;SDS011;11667;51.706;4.856;2023-04-25T05:57:33;13.83;;;2.92;;
23001;SDS011;11667;51.706;4.856;2023-04-25T06:00:03;14.73;;;2.95;;
23001;SDS011;11667;51.706;4.856;2023-04-25T06:02:41;9.43;;;2.87;;
23001;SDS011;11667;51.706;4.856;2023-04-25T06:05:13;11.57;;;3.17;;
23001;SDS011;11667;51.706;4.856;2023-04-25T06:07:44;10.57;;;2.60;;
23001;SDS011;11667;51.706;4.856;2023-04-25T06:10:14;11.10;;;2.85;;
23001;SDS011;11667;51.706;4.856;2023-04-25T06:12:43;10.68;;;2.98;;
23001;SDS011;11667;51.706;4.856;2023-04-25T06:15:14;14.10;;;2.98;;
23001;SDS011;11667;51.706;4.856;2023-04-25T06:17:46;9.13;;;2.60;;
23001;SDS011;11667;51.706;4.856;2023-04-25T06:20:16;11.08;;;2.67;;
23001;SDS011;11667;51.706;4.856;2023-04-25T06:22:47;9.35;;;2.65;;
23001;SDS011;11667;51.706;4.856;2023-04-25T06:25:17;6.80;;;2.20;;
23001;SDS011;11667;51.706;4.856;2023-04-25T06:27:47;13.32;;;2.83;;
23001;SDS011;11667;51.706;4.856;2023-04-25T06:30:17;9.68;;;2.58;;
23001;SDS011;11667;51.706;4.856;2023-04-25T06:32:49;14.53;;;2.65;;
23001;SDS011;11667;51.706;4.856;2023-04-25T06:35:19;17.15;;;2.85;;
23001;SDS011;11667;51.706;4.856;2023-04-25T06:37:49;9.03;;;2.58;;
23001;SDS011;11667;51.706;4.856;2023-04-25T06:40:20;10.35;;;2.52;;
23001;SDS011;11667;51.706;4.856;2023-04-25T06:42:50;13.08;;;2.67;;
23001;SDS011;11667;51.706;4.856;2023-04-25T06:45:40;11.88;;;2.27;;
23001;SDS011;11667;51.706;4.856;2023-04-25T06:48:11;12.03;;;2.50;;
23001;SDS011;11667;51.706;4.856;2023-04-25T06:50:41;6.62;;;1.95;;
23001;SDS011;11667;51.706;4.856;2023-04-25T06:53:12;8.75;;;2.10;;
23001;SDS011;11667;51.706;4.856;2023-04-25T06:55:43;7.85;;;2.10;;
23001;SDS011;11667;51.706;4.856;2023-04-25T06:58:14;7.78;;;2.10;;
23001;SDS011;11667;51.706;4.856;2023-04-25T07:00:58;11.20;;;2.37;;
23001;SDS011;11667;51.706;4.856;2023-04-25T07:03:28;7.37;;;1.90;;
23001;SDS011;11667;51.706;4.856;2023-04-25T07:06:00;11.18;;;1.90;;
23001;SDS011;11667;51.706;4.856;2023-04-25T07:08:30;7.40;;;1.95;;
23001;SDS011;11667;51.706;4.856;2023-04-25T07:10:59;5.42;;;1.55;;
23001;SDS011;11667;51.706;4.856;2023-04-25T07:13:29;4.20;;;1.70;;
23001;SDS011;11667;51.706;4.856;2023-04-25T07:15:58;9.88;;;1.90;;
23001;SDS011;11667;51.706;4.856;2023-04-25T07:18:29;6.83;;;1.90;;
23001;SDS011;11667;51.706;4.856;2023-04-25T07:20:59;7.72;;;2.15;;
23001;SDS011;11667;51.706;4.856;2023-04-25T07:23:29;6.87;;;1.90;;
23001;SDS011;11667;51.706;4.856;2023-04-25T07:26:00;4.58;;;1.70;;
23001;SDS011;11667;51.706;4.856;2023-04-25T07:28:31;6.25;;;1.60;;
23001;SDS011;11667;51.706;4.856;2023-04-25T07:31:01;7.55;;;1.70;;
23001;SDS011;11667;51.706;4.856;2023-04-25T07:33:33;4.75;;;1.40;;
23001;SDS011;11667;51.706;4.856;2023-04-25T07:36:02;4.28;;;1.50;;
23001;SDS011;11667;51.706;4.856;2023-04-25T07:38:32;5.78;;;1.47;;
23001;SDS011;11667;51.706;4.856;2023-04-25T07:41:02;5.90;;;1.50;;
23001;SDS011;11667;51.706;4.856;2023-04-25T07:43:32;7.08;;;1.72;;
23001;SDS011;11667;51.706;4.856;2023-04-25T07:46:02;4.53;;;1.10;;
23001;SDS011;11667;51.706;4.856;2023-04-25T07:48:33;5.97;;;1.27;;
23001;SDS011;11667;51.706;4.856;2023-04-25T07:51:03;5.72;;;1.45;;
23001;SDS011;11667;51.706;4.856;2023-04-25T07:53:34;3.58;;;1.35;;
23001;SDS011;11667;51.706;4.856;2023-04-25T07:56:07;4.75;;;1.52;;
23001;SDS011;11667;51.706;4.856;2023-04-25T07:58:38;7.30;;;1.57;;
23001;SDS011;11667;51.706;4.856;2023-04-25T08:01:09;6.50;;;1.62;;
23001;SDS011;11667;51.706;4.856;2023-04-25T08:03:40;8.68;;;2.08;;
23001;SDS011;11667;51.706;4.856;2023-04-25T08:06:12;8.58;;;1.55;;
23001;SDS011;11667;51.706;4.856;2023-04-25T08:08:43;10.55;;;2.02;;
23001;SDS011;11667;51.706;4.856;2023-04-25T08:11:15;11.90;;;2.10;;
23001;SDS011;11667;51.706;4.856;2023-04-25T08:13:44;5.62;;;1.25;;
23001;SDS011;11667;51.706;4.856;2023-04-25T08:16:15;7.15;;;1.15;;
23001;SDS011;11667;51.706;4.856;2023-04-25T08:18:46;7.87;;;1.67;;
23001;SDS011;11667;51.706;4.856;2023-04-25T08:21:15;6.45;;;1.30;;
23001;SDS011;11667;51.706;4.856;2023-04-25T08:23:45;4.78;;;1.10;;
23001;SDS011;11667;51.706;4.856;2023-04-25T08:26:19;6.22;;;1.50;;
23001;SDS011;11667;51.706;4.856;2023-04-25T08:28:49;7.30;;;1.22;;
23001;SDS011;11667;51.706;4.856;2023-04-25T08:31:21;8.80;;;1.75;;
23001;SDS011;11667;51.706;4.856;2023-04-25T08:33:53;13.05;;;1.62;;
23001;SDS011;11667;51.706;4.856;2023-04-25T08:36:27;4.50;;;1.32;;
23001;SDS011;11667;51.706;4.856;2023-04-25T08:38:58;5.22;;;1.55;;
23001;SDS011;11667;51.706;4.856;2023-04-25T08:41:28;6.47;;;1.60;;
23001;SDS011;11667;51.706;4.856;2023-04-25T08:43:57;7.70;;;1.37;;
23001;SDS011;11667;51.706;4.856;2023-04-25T08:46:28;9.38;;;1.37;;
23001;SDS011;11667;51.706;4.856;2023-04-25T08:49:07;5.87;;;1.27;;
23001;SDS011;11667;51.706;4.856;2023-04-25T08:51:44;7.30;;;1.42;;
23001;SDS011;11667;51.706;4.856;2023-04-25T08:54:20;9.43;;;1.60;;
23001;SDS011;11667;51.706;4.856;2023-04-25T08:56:53;13.13;;;1.70;;
23001;SDS011;11667;51.706;4.856;2023-04-25T08:59:23;6.80;;;1.30;;
23001;SDS011;11667;51.706;4.856;2023-04-25T09:01:53;8.05;;;1.27;;
23001;SDS011;11667;51.706;4.856;2023-04-25T09:04:23;4.78;;;1.50;;
23001;SDS011;11667;51.706;4.856;2023-04-25T09:06:54;6.42;;;1.40;;
23001;SDS011;11667;51.706;4.856;2023-04-25T09:09:24;9.03;;;1.27;;
23001;SDS011;11667;51.706;4.856;2023-04-25T09:11:54;5.87;;;1.35;;
23001;SDS011;11667;51.706;4.856;2023-04-25T09:14:24;6.92;;;1.35;;
23001;SDS011;11667;51.706;4.856;2023-04-25T09:17:09;6.00;;;1.30;;
23001;SDS011;11667;51.706;4.856;2023-04-25T09:19:40;6.72;;;1.30;;
23001;SDS011;11667;51.706;4.856;2023-04-25T09:22:13;11.40;;;1.75;;
23001;SDS011;11667;51.706;4.856;2023-04-25T09:24:43;7.33;;;1.20;;
23001;SDS011;11667;51.706;4.856;2023-04-25T09:27:19;4.28;;;1.30;;
23001;SDS011;11667;51.706;4.856;2023-04-25T09:29:58;6.47;;;1.42;;
23001;SDS011;11667;51.706;4.856;2023-04-25T09:32:30;5.60;;;1.15;;
23001;SDS011;11667;51.706;4.856;2023-04-25T09:35:01;3.33;;;0.90;;
23001;SDS011;11667;51.706;4.856;2023-04-25T09:37:31;5.90;;;1.02;;
23001;SDS011;11667;51.706;4.856;2023-04-25T09:40:11;5.55;;;1.15;;
23001;SDS011;11667;51.706;4.856;2023-04-25T09:42:57;4.47;;;1.20;;
23001;SDS011;11667;51.706;4.856;2023-04-25T09:45:35;9.08;;;1.27;;
23001;SDS011;11667;51.706;4.856;2023-04-25T09:48:03;7.95;;;1.92;;
23001;SDS011;11667;51.706;4.856;2023-04-25T09:50:36;6.72;;;1.20;;
23001;SDS011;11667;51.706;4.856;2023-04-25T09:53:07;5.62;;;1.02;;
23001;SDS011;11667;51.706;4.856;2023-04-25T09:55:38;5.05;;;1.17;;
23001;SDS011;11667;51.706;4.856;2023-04-25T09:58:08;6.22;;;1.00;;
23001;SDS011;11667;51.706;4.856;2023-04-25T10:00:39;8.98;;;1.30;;
23001;SDS011;11667;51.706;4.856;2023-04-25T10:03:11;8.20;;;1.47;;
23001;SDS011;11667;51.706;4.856;2023-04-25T10:05:43;5.55;;;1.05;;
23001;SDS011;11667;51.706;4.856;2023-04-25T10:08:13;6.42;;;1.30;;
23001;SDS011;11667;51.706;4.856;2023-04-25T10:10:43;4.83;;;1.30;;
23001;SDS011;11667;51.706;4.856;2023-04-25T10:13:13;3.37;;;1.10;;
23001;SDS011;11667;51.706;4.856;2023-04-25T10:15:43;5.03;;;1.10;;
23001;SDS011;11667;51.706;4.856;2023-04-25T10:18:12;6.20;;;1.35;;
23001;SDS011;11667;51.706;4.856;2023-04-25T10:20:44;6.80;;;1.32;;
23001;SDS011;11667;51.706;4.856;2023-04-25T10:23:14;4.42;;;1.15;;
23001;SDS011;11667;51.706;4.856;2023-04-25T10:25:44;2.90;;;1.00;;
23001;SDS011;11667;51.706;4.856;2023-04-25T10:28:14;4.53;;;0.90;;
23001;SDS011;11667;51.706;4.856;2023-04-25T10:30:59;3.67;;;1.00;;
23001;SDS011;11667;51.706;4.856;2023-04-25T10:33:34;4.78;;;1.10;;
23001;SDS011;11667;51.706;4.856;2023-04-25T10:36:11;5.67;;;1.27;;
23001;SDS011;11667;51.706;4.856;2023-04-25T10:38:45;3.85;;;1.30;;
23001;SDS011;11667;51.706;4.856;2023-04-25T10:41:15;4.45;;;1.30;;
23001;SDS011;11667;51.706;4.856;2023-04-25T10:43:48;4.80;;;1.20;;
23001;SDS011;11667;51.706;4.856;2023-04-25T10:46:28;6.53;;;1.40;;
23001;SDS011;11667;51.706;4.856;2023-04-25T10:48:57;4.92;;;1.25;;
23001;SDS011;11667;51.706;4.856;2023-04-25T10:51:28;8.73;;;1.12;;
23001;SDS011;11667;51.706;4.856;2023-04-25T10:54:05;5.12;;;1.27;;
23001;SDS011;11667;51.706;4.856;2023-04-25T10:59:12;6.50;;;1.47;;
23001;SDS011;11667;51.706;4.856;2023-04-25T11:01:51;6.42;;;1.30;;
23001;SDS011;11667;51.706;4.856;2023-04-25T11:04:29;6.03;;;1.07;;
23001;SDS011;11667;51.706;4.856;2023-04-25T11:07:07;6.03;;;1.25;;
23001;SDS011;11667;51.706;4.856;2023-04-25T11:09:53;7.25;;;1.27;;
23001;SDS011;11667;51.706;4.856;2023-04-25T11:12:24;4.47;;;1.05;;
23001;SDS011;11667;51.706;4.856;2023-04-25T11:15:00;4.97;;;1.05;;
23001;SDS011;11667;51.706;4.856;2023-04-25T11:17:33;2.35;;;1.12;;
23001;SDS011;11667;51.706;4.856;2023-04-25T11:22:34;3.95;;;1.30;;
23001;SDS011;11667;51.706;4.856;2023-04-25T11:25:05;2.33;;;0.90;;
23001;SDS011;11667;51.706;4.856;2023-04-25T11:27:51;3.50;;;1.10;;
23001;SDS011;11667;51.706;4.856;2023-04-25T11:33:32;5.60;;;1.22;;
23001;SDS011;11667;51.706;4.856;2023-04-25T11:36:01;3.70;;;1.40;;
23001;SDS011;11667;51.706;4.856;2023-04-25T11:38:31;6.70;;;1.22;;
23001;SDS011;11667;51.706;4.856;2023-04-25T11:41:00;6.50;;;1.25;;
23001;SDS011;11667;51.706;4.856;2023-04-25T11:43:30;5.67;;;1.30;;
23001;SDS011;11667;51.706;4.856;2023-04-25T11:46:00;8.05;;;1.27;;
23001;SDS011;11667;51.706;4.856;2023-04-25T11:48:36;4.65;;;1.17;;
23001;SDS011;11667;51.706;4.856;2023-04-25T11:51:08;7.25;;;1.20;;
23001;SDS011;11667;51.706;4.856;2023-04-25T11:53:40;5.45;;;1.20;;
23001;SDS011;11667;51.706;4.856;2023-04-25T11:56:13;4.83;;;1.25;;
23001;SDS011;11667;51.706;4.856;2023-04-25T11:58:56;7.35;;;1.40;;
23001;SDS011;11667;51.706;4.856;2023-04-25T12:01:30;4.28;;;1.12;;
23001;SDS011;11667;51.706;4.856;2023-04-25T12:04:12;3.70;;;1.07;;
23001;SDS011;11667;51.706;4.856;2023-04-25T12:06:44;9.13;;;1.20;;
23001;SDS011;11667;51.706;4.856;2023-04-25T12:09:17;5.65;;;1.10;;
23001;SDS011;11667;51.706;4.856;2023-04-25T12:11:55;3.70;;;1.10;;
23001;SDS011;11667;51.706;4.856;2023-04-25T12:14:26;4.40;;;1.00;;
23001;SDS011;11667;51.706;4.856;2023-04-25T12:16:58;4.23;;;1.20;;
23001;SDS011;11667;51.706;4.856;2023-04-25T12:19:32;5.40;;;1.10;;
23001;SDS011;11667;51.706;4.856;2023-04-25T12:22:03;4.83;;;1.30;;
23001;SDS011;11667;51.706;4.856;2023-04-25T12:24:34;4.15;;;1.00;;
23001;SDS011;11667;51.706;4.856;2023-04-25T12:27:05;3.10;;;1.00;;
23001;SDS011;11667;51.706;4.856;2023-04-25T12:29:38;5.15;;;1.30;;
23001;SDS011;11667;51.706;4.856;2023-04-25T12:32:09;3.17;;;1.07;;
23001;SDS011;11667;51.706;4.856;2023-04-25T12:34:39;6.42;;;1.40;;
23001;SDS011;11667;51.706;4.856;2023-04-25T12:37:09;7.95;;;1.70;;
23001;SDS011;11667;51.706;4.856;2023-04-25T12:39:39;4.60;;;1.20;;
23001;SDS011;11667;51.706;4.856;2023-04-25T12:42:09;5.80;;;1.22;;
23001;SDS011;11667;51.706;4.856;2023-04-25T12:44:42;9.65;;;1.37;;
23001;SDS011;11667;51.706;4.856;2023-04-25T12:47:11;4.65;;;1.37;;
23001;SDS011;11667;51.706;4.856;2023-04-25T12:49:40;4.10;;;1.30;;
23001;SDS011;11667;51.706;4.856;2023-04-25T12:52:10;6.30;;;1.20;;
23001;SDS011;11667;51.706;4.856;2023-04-25T12:54:39;5.37;;;1.27;;
23001;SDS011;11667;51.706;4.856;2023-04-25T12:57:08;5.40;;;1.10;;
23001;SDS011;11667;51.706;4.856;2023-04-25T12:59:38;7.80;;;1.30;;
23001;SDS011;11667;51.706;4.856;2023-04-25T13:02:08;5.65;;;1.20;;
23001;SDS011;11667;51.706;4.856;2023-04-25T13:04:38;5.20;;;1.07;;
23001;SDS011;11667;51.706;4.856;2023-04-25T13:07:08;7.15;;;1.12;;
23001;SDS011;11667;51.706;4.856;2023-04-25T13:09:37;5.58;;;1.17;;
23001;SDS011;11667;51.706;4.856;2023-04-25T13:12:06;4.67;;;1.40;;
23001;SDS011;11667;51.706;4.856;2023-04-25T13:14:36;5.45;;;1.55;;
23001;SDS011;11667;51.706;4.856;2023-04-25T13:17:05;4.53;;;1.20;;
23001;SDS011;11667;51.706;4.856;2023-04-25T13:19:35;3.77;;;1.07;;
23001;SDS011;11667;51.706;4.856;2023-04-25T13:22:06;4.53;;;1.35;;
23001;SDS011;11667;51.706;4.856;2023-04-25T13:24:35;3.33;;;1.10;;
23001;SDS011;11667;51.706;4.856;2023-04-25T13:27:04;6.33;;;1.07;;
23001;SDS011;11667;51.706;4.856;2023-04-25T13:29:34;5.15;;;1.12;;
23001;SDS011;11667;51.706;4.856;2023-04-25T13:32:12;5.72;;;1.20;;
23001;SDS011;11667;51.706;4.856;2023-04-25T13:34:37;6.03;;;1.30;;
23001;SDS011;11667;51.706;4.856;2023-04-25T13:37:07;5.10;;;1.47;;
23001;SDS011;11667;51.706;4.856;2023-04-25T13:39:36;3.80;;;1.20;;
23001;SDS011;11667;51.706;4.856;2023-04-25T13:42:05;3.92;;;1.25;;
23001;SDS011;11667;51.706;4.856;2023-04-25T13:44:35;7.53;;;1.52;;
23001;SDS011;11667;51.706;4.856;2023-04-25T13:47:04;6.50;;;1.40;;
23001;SDS011;11667;51.706;4.856;2023-04-25T13:49:34;2.77;;;1.10;;
23001;SDS011;11667;51.706;4.856;2023-04-25T13:52:03;2.87;;;1.15;;
23001;SDS011;11667;51.706;4.856;2023-04-25T13:54:33;4.12;;;1.12;;
23001;SDS011;11667;51.706;4.856;2023-04-25T13:57:02;4.25;;;1.35;;
23001;SDS011;11667;51.706;4.856;2023-04-25T13:59:33;6.00;;;1.10;;
23001;SDS011;11667;51.706;4.856;2023-04-25T14:02:02;4.62;;;1.22;;
23001;SDS011;11667;51.706;4.856;2023-04-25T14:04:31;5.87;;;1.37;;
23001;SDS011;11667;51.706;4.856;2023-04-25T14:07:02;5.85;;;1.50;;
23001;SDS011;11667;51.706;4.856;2023-04-25T14:09:32;3.77;;;1.22;;
23001;SDS011;11667;51.706;4.856;2023-04-25T14:12:01;5.85;;;1.70;;
23001;SDS011;11667;51.706;4.856;2023-04-25T14:14:31;5.80;;;1.22;;
23001;SDS011;11667;51.706;4.856;2023-04-25T14:17:00;7.67;;;1.50;;
23001;SDS011;11667;51.706;4.856;2023-04-25T14:19:30;5.37;;;1.52;;
23001;SDS011;11667;51.706;4.856;2023-04-25T14:21:59;6.60;;;1.42;;
23001;SDS011;11667;51.706;4.856;2023-04-25T14:24:28;5.12;;;1.20;;
23001;SDS011;11667;51.706;4.856;2023-04-25T14:26:58;6.47;;;1.30;;
23001;SDS011;11667;51.706;4.856;2023-04-25T14:29:28;7.45;;;1.90;;
23001;SDS011;11667;51.706;4.856;2023-04-25T14:31:57;7.28;;;1.50;;
23001;SDS011;11667;51.706;4.856;2023-04-25T14:34:27;6.45;;;1.45;;
23001;SDS011;11667;51.706;4.856;2023-04-25T14:36:57;8.50;;;1.75;;
23001;SDS011;11667;51.706;4.856;2023-04-25T14:39:26;6.10;;;1.65;;
23001;SDS011;11667;51.706;4.856;2023-04-25T14:41:56;5.08;;;1.40;;
23001;SDS011;11667;51.706;4.856;2023-04-25T14:44:26;10.45;;;1.80;;
23001;SDS011;11667;51.706;4.856;2023-04-25T14:46:55;7.53;;;1.92;;
23001;SDS011;11667;51.706;4.856;2023-04-25T14:49:25;5.78;;;1.60;;
23001;SDS011;11667;51.706;4.856;2023-04-25T14:51:55;6.80;;;1.82;;
23001;SDS011;11667;51.706;4.856;2023-04-25T14:54:25;10.25;;;1.90;;
23001;SDS011;11667;51.706;4.856;2023-04-25T14:56:54;5.55;;;1.65;;
23001;SDS011;11667;51.706;4.856;2023-04-25T14:59:25;5.37;;;1.65;;
23001;SDS011;11667;51.706;4.856;2023-04-25T15:01:55;6.45;;;1.80;;
23001;SDS011;11667;51.706;4.856;2023-04-25T15:04:26;4.47;;;1.70;;
23001;SDS011;11667;51.706;4.856;2023-04-25T15:06:56;5.40;;;1.50;;
23001;SDS011;11667;51.706;4.856;2023-04-25T15:09:26;7.60;;;1.60;;
23001;SDS011;11667;51.706;4.856;2023-04-25T15:11:58;6.97;;;1.52;;
23001;SDS011;11667;51.706;4.856;2023-04-25T15:14:28;8.83;;;1.60;;
23001;SDS011;11667;51.706;4.856;2023-04-25T15:16:57;8.35;;;1.80;;
23001;SDS011;11667;51.706;4.856;2023-04-25T15:19:27;7.53;;;1.50;;